Time;durP1;ratioP1;P1;durP2;ratioP2;P2;SDS_P1;SDS_P2;PMS_P1;PMS_P2;Temp;Humidity;BMP_temperature;BMP_pressure;BME280_temperature;BME280_humidity;BME280_pressure;Samples;Min_cycle;Max_cycle;Signal;HPM_P1;HPM_P2
2022/05/27 00:01:49;;;;;;;14.45;9.10;;;;;;;20.72;86.91;100770.25;4952765;29;20067;-79
2022/05/27 00:04:15;;;;;;;14.15;7.90;;;;;;;20.84;87.34;100800.91;4936371;29;20090;-78
2022/05/27 00:06:40;;;;;;;13.15;8.40;;;;;;;20.88;87.17;100796.53;4951904;29;20137;-80
2022/05/27 00:09:05;;;;;;;18.73;8.35;;;;;;;20.94;87.58;100801.78;4951989;29;20082;-73
2022/05/27 00:11:32;;;;;;;16.48;8.00;;;;;;;20.93;87.56;100805.25;4952562;29;20098;-77
2022/05/27 00:13:57;;;;;;;10.55;7.10;;;;;;;20.76;88.28;100790.41;4934025;29;20139;-78
2022/05/27 00:16:23;;;;;;;8.02;6.20;;;;;;;20.60;88.06;100767.59;4950312;29;20035;-78
2022/05/27 00:18:48;;;;;;;11.15;6.50;;;;;;;20.59;88.01;100779.00;4952450;29;20027;-78
2022/05/27 00:21:14;;;;;;;11.15;6.45;;;;;;;20.46;87.25;100767.59;4987899;28;20129;-77
2022/05/27 00:23:40;;;;;;;9.02;6.53;;;;;;;20.43;87.78;100754.50;4993061;28;20107;-75
2022/05/27 00:26:06;;;;;;;9.52;7.45;;;;;;;20.59;88.33;100798.22;4975837;28;20066;-77
2022/05/27 00:28:32;;;;;;;9.43;7.10;;;;;;;20.40;89.28;100763.25;4993642;28;20034;-77
2022/05/27 00:30:57;;;;;;;9.50;7.68;;;;;;;20.55;89.65;100787.72;4993210;28;20040;-77
2022/05/27 00:33:23;;;;;;;11.10;7.25;;;;;;;20.53;89.80;100785.09;4993070;28;20026;-77
2022/05/27 00:35:49;;;;;;;9.25;7.93;;;;;;;20.47;90.78;100775.50;4993432;28;20041;-77
2022/05/27 00:38:15;;;;;;;9.15;7.32;;;;;;;20.55;89.21;100778.13;4993366;28;20027;-78
2022/05/27 00:40:44;;;;;;;7.97;7.18;;;;;;;20.30;90.12;100745.72;4992987;28;20050;-74
2022/05/27 00:43:10;;;;;;;7.80;6.90;;;;;;;20.40;90.68;100768.50;4993161;28;20055;-78
2022/05/27 00:45:38;;;;;;;9.90;6.82;;;;;;;20.34;90.85;100765.84;4992889;28;20409;-77
2022/05/27 00:48:07;;;;;;;8.57;7.00;;;;;;;20.18;92.24;100763.19;4993050;28;20053;-77
2022/05/27 00:50:36;;;;;;;7.53;6.47;;;;;;;20.23;92.58;100771.06;4992874;28;20523;-77
2022/05/27 00:53:03;;;;;;;8.82;6.43;;;;;;;20.12;92.73;100778.91;4993065;28;20034;-77
2022/05/27 00:55:33;;;;;;;8.13;6.00;;;;;;;20.02;93.06;100770.13;4993236;28;20066;-77
2022/05/27 00:58:13;;;;;;;;;;;;;;;19.96;93.65;100784.97;4993299;28;20412;-82
2022/05/27 01:00:39;;;;;;;7.75;5.95;;;;;;;19.75;93.54;100742.09;4992597;28;19909;-77
2022/05/27 01:03:09;;;;;;;8.55;6.50;;;;;;;19.91;93.60;100786.72;4992697;28;20432;-77
2022/05/27 01:05:34;;;;;;;;;;;;;;;19.88;93.18;100785.81;4993218;28;20481;-77
2022/05/27 01:08:07;;;;;;;13.98;8.13;;;;;;;19.76;94.20;100780.50;4992832;28;19913;-78
2022/05/27 01:10:59;;;;;;;13.90;8.50;;;;;;;19.60;94.39;100768.22;4992501;28;20034;-76
2022/05/27 01:13:59;;;;;;;14.70;9.90;;;;;;;19.71;95.28;100784.84;4992371;28;20433;-77
2022/05/27 01:17:01;;;;;;;17.70;10.43;;;;;;;19.62;97.15;100783.06;4992548;28;20066;-77
2022/05/27 01:22:40;;;;;;;19.63;10.45;;;;;;;19.79;98.38;100777.91;4992660;28;20192;-77
2022/05/27 01:25:08;;;;;;;18.88;10.35;;;;;;;19.85;97.60;100780.59;4992098;28;20113;-79
2022/05/27 01:28:18;;;;;;;16.75;11.00;;;;;;;19.85;97.30;100772.72;4992405;28;20026;-77
2022/05/27 01:30:57;;;;;;;16.77;10.05;;;;;;;19.89;95.15;100771.00;4897252;29;20028;-77
2022/05/27 01:33:44;;;;;;;19.70;9.93;;;;;;;19.81;95.60;100778.81;4912384;29;20050;-77
2022/05/27 01:36:42;;;;;;;14.60;9.70;;;;;;;19.83;95.29;100784.94;4912623;29;20044;-77
2022/05/27 01:39:18;;;;;;;16.83;10.32;;;;;;;19.65;94.79;100740.28;4875149;29;20116;-77
2022/05/27 01:42:27;;;;;;;13.45;9.48;;;;;;;19.65;95.05;100735.06;4874733;29;20060;-77
2022/05/27 01:45:09;;;;;;;14.55;9.73;;;;;;;19.79;96.04;100767.44;4875017;29;20128;-77
2022/05/27 01:47:43;;;;;;;15.32;9.40;;;;;;;19.88;95.64;100770.09;4875005;29;20044;-77
2022/05/27 01:50:35;;;;;;;15.02;9.65;;;;;;;19.91;94.06;100766.63;4875132;29;20037;-77
2022/05/27 01:53:17;;;;;;;11.77;9.05;;;;;;;19.31;94.31;100685.19;4875052;29;20575;-77
2022/05/27 01:55:53;;;;;;;13.13;9.02;;;;;;;19.67;93.94;100767.38;4874902;29;20041;-77
2022/05/27 01:58:33;;;;;;;15.32;8.60;;;;;;;19.53;93.37;100747.25;4875050;29;20112;-78
2022/05/27 02:00:58;;;;;;;15.15;9.15;;;;;;;19.48;93.04;100745.47;4880074;29;20045;-77
2022/05/27 02:03:32;;;;;;;13.60;9.18;;;;;;;19.59;93.16;100774.31;4893422;29;20123;-79
2022/05/27 02:06:20;;;;;;;15.73;9.50;;;;;;;19.53;95.47;100768.19;4893546;29;20079;-77
2022/05/27 02:09:04;;;;;;;14.95;8.93;;;;;;;19.40;96.05;100741.06;4893351;29;20527;-76
2022/05/27 02:11:30;;;;;;;12.82;8.48;;;;;;;19.40;97.20;100777.72;4893415;29;20036;-76
2022/05/27 02:14:08;;;;;;;12.18;7.65;;;;;;;19.25;97.64;100775.00;4893364;29;20559;-76
2022/05/27 02:16:42;;;;;;;14.52;8.10;;;;;;;19.20;98.69;100772.38;4917621;29;20050;-76
2022/05/27 02:19:55;;;;;;;11.13;8.00;;;;;;;19.10;100.00;100775.78;4931272;29;20399;-76
2022/05/27 02:22:28;;;;;;;10.38;7.82;;;;;;;18.85;100.00;100765.09;4907923;29;20048;-76
2022/05/27 02:25:00;;;;;;;11.32;8.50;;;;;;;18.98;100.00;100784.44;4912110;29;20044;-76
2022/05/27 02:27:31;;;;;;;8.02;7.22;;;;;;;18.90;100.00;100771.31;4912068;29;20483;-77
2022/05/27 02:30:02;;;;;;;9.52;7.20;;;;;;;18.99;100.00;100782.69;4912105;29;20153;-77
2022/05/27 02:32:37;;;;;;;9.57;7.35;;;;;;;19.06;98.77;100789.72;4912074;29;20175;-76
2022/05/27 02:35:14;;;;;;;11.45;8.13;;;;;;;19.18;97.89;100781.97;4912280;29;20036;-76
2022/05/27 02:37:43;;;;;;;12.75;8.45;;;;;;;18.92;98.36;100722.47;4912023;29;20073;-77
2022/05/27 02:40:33;;;;;;;12.63;7.60;;;;;;;19.29;98.58;100778.53;4880166;29;20052;-77
2022/05/27 02:43:21;;;;;;;11.52;7.47;;;;;;;19.10;98.03;100761.84;4911886;29;20048;-77
2022/05/27 02:45:54;;;;;;;10.57;8.23;;;;;;;19.24;98.84;100787.22;4911297;29;20435;-77
2022/05/27 02:48:36;;;;;;;9.20;7.60;;;;;;;19.24;98.77;100791.59;4911894;29;20139;-76
2022/05/27 02:51:19;;;;;;;10.05;7.18;;;;;;;19.02;98.78;100754.81;4911650;29;20075;-76
2022/05/27 02:54:03;;;;;;;10.93;6.82;;;;;;;19.09;97.46;100781.91;4911899;29;20544;-76
2022/05/27 02:56:58;;;;;;;9.18;6.20;;;;;;;19.17;96.49;100790.66;4950361;28;20065;-76
2022/05/27 02:59:25;;;;;;;8.68;6.13;;;;;;;19.12;95.64;100776.69;4937133;28;20041;-77
2022/05/27 03:01:51;;;;;;;9.93;6.40;;;;;;;19.04;96.30;100796.69;4971810;28;20039;-77
2022/05/27 03:04:18;;;;;;;9.18;7.28;;;;;;;18.90;95.97;100776.53;4971283;28;20018;-77
2022/05/27 03:07:00;;;;;;;12.27;7.70;;;;;;;18.87;95.41;100780.84;4954105;28;20474;-76
2022/05/27 03:09:54;;;;;;;12.45;8.02;;;;;;;18.87;96.28;100789.53;4971588;28;20122;-77
2022/05/27 03:12:44;;;;;;;14.40;8.68;;;;;;;18.77;96.79;100790.34;4892643;29;20837;-76
2022/05/27 03:15:21;;;;;;;13.30;9.40;;;;;;;18.18;98.45;100724.47;4892823;29;20044;-76
2022/05/27 03:17:55;;;;;;;14.05;9.30;;;;;;;18.53;99.54;100791.88;4892662;29;20052;-77
2022/05/27 03:20:48;;;;;;;14.10;9.60;;;;;;;18.52;99.52;100790.13;4892648;29;20390;-76
2022/05/27 03:23:22;;;;;;;16.10;10.80;;;;;;;18.57;100.00;100795.41;4893041;29;20045;-76
2022/05/27 03:25:59;;;;;;;14.95;10.13;;;;;;;18.61;100.00;100797.19;4892698;29;20218;-76
2022/05/27 03:28:40;;;;;;;13.35;10.27;;;;;;;18.66;100.00;100794.63;4892607;29;20044;-76
2022/05/27 03:31:17;;;;;;;15.00;10.70;;;;;;;18.67;100.00;100797.22;4892759;29;20804;-77
2022/05/27 03:34:04;;;;;;;14.70;10.80;;;;;;;18.76;100.00;100791.22;4892616;29;20044;-77
2022/05/27 03:36:39;;;;;;;15.23;11.65;;;;;;;18.84;100.00;100793.88;4892606;29;20476;-78
2022/05/27 03:39:36;;;;;;;12.85;9.93;;;;;;;18.92;100.00;100797.47;4892563;29;20064;-77
2022/05/27 03:42:06;;;;;;;15.85;10.55;;;;;;;18.78;100.00;100760.72;4904093;29;20064;-77
2022/05/27 03:44:32;;;;;;;12.95;10.82;;;;;;;19.00;100.00;100808.84;4929282;29;20110;-77
2022/05/27 03:46:59;;;;;;;14.20;9.10;;;;;;;18.98;100.00;100809.72;4930202;29;20052;-77
2022/05/27 03:49:25;;;;;;;13.40;9.23;;;;;;;18.92;100.00;100787.88;4952942;28;20043;-77
2022/05/27 03:51:54;;;;;;;15.70;8.77;;;;;;;19.02;100.00;100806.28;4970932;28;20031;-77
2022/05/27 03:54:21;;;;;;;15.80;10.02;;;;;;;18.99;100.00;100812.38;4971075;28;20378;-76
2022/05/27 03:56:46;;;;;;;15.15;9.75;;;;;;;18.80;100.00;100779.91;4971394;28;20027;-77
2022/05/27 03:59:14;;;;;;;13.95;8.57;;;;;;;18.95;100.00;100810.56;4974568;28;20085;-77
2022/05/27 04:01:42;;;;;;;10.73;8.77;;;;;;;18.85;100.00;100806.09;4974587;28;20031;-76
2022/05/27 04:04:10;;;;;;;12.85;9.05;;;;;;;18.82;100.00;100812.19;4974448;28;20069;-77
2022/05/27 04:06:36;;;;;;;13.95;9.23;;;;;;;18.89;100.00;100808.75;4974354;28;20026;-76
2022/05/27 04:09:03;;;;;;;13.20;9.00;;;;;;;18.85;100.00;100804.34;4974302;28;20098;-76
2022/05/27 04:11:32;;;;;;;11.95;10.00;;;;;;;18.85;100.00;100800.88;4974306;28;20066;-77
2022/05/27 04:13:58;;;;;;;12.30;9.52;;;;;;;18.83;100.00;100798.25;4974190;28;20493;-77
2022/05/27 04:16:24;;;;;;;13.48;8.75;;;;;;;18.97;100.00;100805.38;4984949;28;20061;-77
2022/05/27 04:18:50;;;;;;;13.40;9.70;;;;;;;19.06;100.00;100802.81;4993457;28;20065;-79
2022/05/27 04:21:16;;;;;;;15.27;9.55;;;;;;;19.07;100.00;100800.19;4993500;28;20100;-76
2022/05/27 04:23:42;;;;;;;16.15;10.10;;;;;;;18.98;100.00;100783.53;4975509;28;20042;-77
2022/05/27 04:26:08;;;;;;;15.00;10.18;;;;;;;18.85;100.00;100762.50;4975874;28;20038;-76
2022/05/27 04:28:34;;;;;;;16.92;10.68;;;;;;;19.17;100.00;100816.84;4988694;28;20398;-78
2022/05/27 04:31:01;;;;;;;14.20;9.85;;;;;;;19.17;100.00;100811.59;4993097;28;20030;-78
2022/05/27 04:33:27;;;;;;;14.70;10.35;;;;;;;19.23;100.00;100806.41;4993520;28;20038;-79
2022/05/27 04:35:54;;;;;;;16.10;10.55;;;;;;;19.25;100.00;100803.81;4993055;28;20424;-78
2022/05/27 04:38:21;;;;;;;13.07;10.68;;;;;;;19.35;100.00;100816.09;4993108;28;20590;-78
2022/05/27 04:40:47;;;;;;;14.38;11.32;;;;;;;19.41;100.00;100817.88;4992538;28;20429;-79
2022/05/27 04:43:13;;;;;;;17.02;11.40;;;;;;;19.17;100.00;100795.91;4992576;28;20113;-78
2022/05/27 04:45:40;;;;;;;17.33;11.50;;;;;;;19.19;100.00;100817.75;4992325;28;20105;-79
2022/05/27 04:48:06;;;;;;;15.60;11.27;;;;;;;19.13;100.00;100820.31;4992472;28;20034;-76
2022/05/27 04:50:31;;;;;;;15.27;12.20;;;;;;;19.14;100.00;100808.97;4993148;28;20708;-78
2022/05/27 04:52:57;;;;;;;17.92;11.77;;;;;;;18.98;100.00;100791.41;4993133;28;20378;-83
2022/05/27 04:55:22;;;;;;;13.07;11.65;;;;;;;19.06;100.00;100795.81;4992751;28;20093;-77
2022/05/27 04:57:53;;;;;;;13.50;11.80;;;;;;;19.36;100.00;100828.31;4992937;28;20033;-79
2022/05/27 05:00:25;;;;;;;16.48;12.07;;;;;;;19.43;100.00;100821.38;4958408;28;20061;-79
2022/05/27 05:02:51;;;;;;;15.60;12.93;;;;;;;19.23;100.00;100782.00;4991984;28;20034;-79
2022/05/27 05:05:19;;;;;;;17.83;12.65;;;;;;;19.51;100.00;100817.03;4987713;28;20515;-79
2022/05/27 05:07:51;;;;;;;18.73;13.25;;;;;;;19.73;100.00;100827.66;4990722;28;20099;-79
2022/05/27 05:10:21;;;;;;;17.33;14.05;;;;;;;19.75;100.00;100823.31;4991183;28;20022;-78
2022/05/27 05:12:49;;;;;;;20.55;12.82;;;;;;;19.75;100.00;100799.72;4991456;28;20489;-81
2022/05/27 05:15:15;;;;;;;16.67;12.07;;;;;;;19.74;100.00;100813.69;4973691;28;20046;-78
2022/05/27 05:17:41;;;;;;;16.40;13.05;;;;;;;19.99;100.00;100817.31;4990782;28;20393;-79
2022/05/27 05:20:08;;;;;;;14.93;12.63;;;;;;;20.05;100.00;100808.63;4991150;28;20076;-78
2022/05/27 05:22:34;;;;;;;15.65;12.73;;;;;;;20.23;100.00;100820.03;4990725;28;20038;-77
2022/05/27 05:25:03;;;;;;;17.73;12.60;;;;;;;20.23;100.00;100809.53;4991307;28;20034;-78
2022/05/27 05:27:29;;;;;;;17.97;12.70;;;;;;;20.38;100.00;100822.66;4991183;28;20637;-78
2022/05/27 05:29:56;;;;;;;19.23;12.40;;;;;;;20.54;100.00;100823.56;4956405;28;20039;-77
2022/05/27 05:32:22;;;;;;;18.00;12.38;;;;;;;20.45;100.00;100789.44;4991629;28;20036;-77
2022/05/27 05:34:48;;;;;;;20.30;12.13;;;;;;;20.58;100.00;100801.72;4990521;28;20472;-77
2022/05/27 05:37:15;;;;;;;19.15;11.70;;;;;;;20.44;100.00;100792.97;4991302;28;20381;-77
2022/05/27 05:39:40;;;;;;;15.38;12.05;;;;;;;20.74;100.00;100825.38;4991258;28;20500;-79
2022/05/27 05:42:07;;;;;;;17.92;12.25;;;;;;;20.81;100.00;100814.00;4990819;28;20047;-76
2022/05/27 05:44:33;;;;;;;19.42;12.30;;;;;;;20.88;100.00;100800.00;4991885;28;20105;-73
2022/05/27 05:46:59;;;;;;;16.83;12.68;;;;;;;21.08;100.00;100823.59;4991423;28;20081;-73
2022/05/27 05:49:25;;;;;;;17.27;12.70;;;;;;;21.20;100.00;100829.72;4991393;28;20030;-70
2022/05/27 05:51:53;;;;;;;15.98;12.05;;;;;;;21.31;100.00;100835.88;4974051;28;20045;-73
2022/05/27 05:54:21;;;;;;;19.02;13.18;;;;;;;21.38;100.00;100831.47;4991331;28;20027;-74
2022/05/27 05:56:48;;;;;;;17.80;12.73;;;;;;;21.25;100.00;100797.34;4991605;28;20134;-72
2022/05/27 05:59:14;;;;;;;16.95;11.40;;;;;;;21.46;100.00;100817.44;4991333;28;20026;-74
2022/05/27 06:01:41;;;;;;;15.98;11.73;;;;;;;21.64;100.00;100828.81;4991368;28;20485;-72
2022/05/27 06:04:06;;;;;;;15.02;11.60;;;;;;;21.62;100.00;100823.56;4991248;28;20030;-72
2022/05/27 06:06:32;;;;;;;19.33;13.38;;;;;;;21.74;100.00;100830.50;4991354;28;20030;-73
2022/05/27 06:08:59;;;;;;;17.48;11.73;;;;;;;21.78;100.00;100832.28;4990778;28;20505;-77
2022/05/27 06:11:24;;;;;;;14.73;12.07;;;;;;;21.68;100.00;100787.63;4991573;28;20485;-76
2022/05/27 06:13:50;;;;;;;13.60;11.50;;;;;;;21.75;98.19;100789.34;4991461;28;20030;-77
2022/05/27 06:16:16;;;;;;;16.20;12.23;;;;;;;22.05;98.04;100819.88;4991142;28;20088;-77
2022/05/27 06:18:42;;;;;;;18.77;11.98;;;;;;;22.03;95.77;100813.78;4991127;28;20052;-75
2022/05/27 06:21:08;;;;;;;18.00;12.23;;;;;;;22.14;95.64;100822.47;4991195;28;20105;-76
2022/05/27 06:23:33;;;;;;;14.43;12.27;;;;;;;22.20;95.15;100831.22;4990757;28;20026;-76
2022/05/27 06:26:02;;;;;;;14.70;10.88;;;;;;;22.24;93.78;100817.16;4991261;28;20033;-76
2022/05/27 06:36:42;;;;;;;17.58;11.40;;;;;;;22.42;94.66;100837.25;4990592;28;20513;-77
2022/05/27 06:39:07;;;;;;;15.82;11.27;;;;;;;22.39;94.08;100819.75;4972593;28;20413;-77
2022/05/27 06:41:34;;;;;;;18.17;11.07;;;;;;;22.37;93.05;100834.66;4989865;28;20042;-74
2022/05/27 06:43:59;;;;;;;17.40;10.52;;;;;;;22.46;93.92;100837.19;4990994;28;20033;-79
2022/05/27 06:46:25;;;;;;;18.80;10.60;;;;;;;22.63;91.75;100833.59;4990379;28;20022;-81
2022/05/27 06:48:50;;;;;;;16.75;11.23;;;;;;;22.57;91.65;100826.63;4973246;28;20424;-81
2022/05/27 06:51:18;;;;;;;14.18;10.18;;;;;;;22.67;92.24;100813.38;4990954;28;20741;-78
2022/05/27 06:53:44;;;;;;;15.05;10.15;;;;;;;22.78;89.23;100819.47;4973384;28;20480;-78
2022/05/27 06:56:10;;;;;;;12.50;8.90;;;;;;;22.83;86.18;100800.97;4990687;28;20054;-75
2022/05/27 06:58:37;;;;;;;12.75;7.53;;;;;;;23.09;81.68;100829.69;4989748;28;20022;-78
2022/05/27 07:01:03;;;;;;;10.13;7.50;;;;;;;23.15;82.28;100823.50;4989545;28;20023;-78
2022/05/27 07:03:29;;;;;;;14.52;7.95;;;;;;;23.24;81.94;100818.19;4990154;28;20033;-75
2022/05/27 07:05:54;;;;;;;16.27;7.70;;;;;;;23.12;80.40;100777.00;4989609;28;20521;-80
2022/05/27 07:08:19;;;;;;;13.30;6.82;;;;;;;23.54;76.55;100829.28;4989346;28;20030;-79
2022/05/27 07:10:45;;;;;;;7.13;5.70;;;;;;;23.67;72.69;100825.63;4970688;28;20030;-79
2022/05/27 07:13:11;;;;;;;9.82;6.20;;;;;;;23.79;76.11;100824.63;4948234;29;20043;-78
2022/05/27 07:15:36;;;;;;;10.68;5.45;;;;;;;23.83;74.12;100825.47;4947821;29;20046;-78
2022/05/27 07:18:08;;;;;;;12.35;6.30;;;;;;;23.93;72.09;100813.94;4932047;29;20203;-77
2022/05/27 07:20:37;;;;;;;12.65;7.95;;;;;;;24.00;78.01;100810.31;4948640;29;20096;-78
2022/05/27 07:23:04;;;;;;;18.88;9.25;;;;;;;24.08;81.71;100802.31;4948423;29;20047;-77
2022/05/27 07:25:34;;;;;;;16.50;10.20;;;;;;;24.10;86.53;100789.09;4948828;29;20039;-76
2022/05/27 07:28:00;;;;;;;17.55;10.18;;;;;;;24.19;85.49;100791.59;4948411;29;20047;-82
2022/05/27 07:30:26;;;;;;;15.23;10.20;;;;;;;24.29;87.06;100794.94;4948180;29;20023;-78
2022/05/27 07:32:52;;;;;;;12.50;10.38;;;;;;;24.01;88.46;100761.97;4950902;28;20487;-77
2022/05/27 07:35:17;;;;;;;12.75;10.13;;;;;;;24.16;87.10;100783.72;4952714;29;20035;-76
2022/05/27 07:37:42;;;;;;;17.15;9.90;;;;;;;24.15;86.30;100792.53;4952129;29;20249;-77
2022/05/27 07:40:09;;;;;;;16.55;10.18;;;;;;;24.19;88.66;100784.56;4952480;29;20186;-76
2022/05/27 07:42:35;;;;;;;16.35;10.65;;;;;;;24.25;84.93;100778.31;4952583;29;20068;-73
2022/05/27 07:45:01;;;;;;;18.65;10.82;;;;;;;24.46;82.66;100794.72;4986724;28;20539;-74
2022/05/27 07:47:26;;;;;;;14.77;9.55;;;;;;;24.61;83.82;100783.94;4959265;28;20039;-77
2022/05/27 07:49:51;;;;;;;14.40;10.40;;;;;;;24.65;83.20;100776.84;4993571;28;20473;-74
2022/05/27 07:52:17;;;;;;;16.98;9.82;;;;;;;24.76;79.64;100779.31;4992937;28;20026;-77
2022/05/27 07:54:42;;;;;;;17.55;9.88;;;;;;;24.79;77.30;100787.19;4992691;28;20481;-74
2022/05/27 07:57:25;;;;;;;13.63;8.98;;;;;;;24.79;77.84;100784.53;4993006;28;20097;-76
2022/05/27 07:59:58;;;;;;;14.55;8.23;;;;;;;24.97;75.66;100783.34;4972334;28;20023;-75
2022/05/27 08:02:25;;;;;;;12.60;8.32;;;;;;;25.02;72.90;100771.81;4979307;28;20035;-76
2022/05/27 08:04:53;;;;;;;11.55;7.50;;;;;;;25.28;71.54;100782.78;4976335;28;20062;-76
2022/05/27 08:07:18;;;;;;;9.85;7.43;;;;;;;24.93;71.98;100750.81;4995814;28;20030;-76
2022/05/27 08:09:44;;;;;;;10.20;6.38;;;;;;;24.96;67.95;100756.06;5012739;28;20033;-77
2022/05/27 08:12:10;;;;;;;12.02;6.80;;;;;;;25.08;68.34;100777.88;5013224;28;20469;-76
2022/05/27 08:14:36;;;;;;;8.68;6.13;;;;;;;25.14;65.97;100759.25;5010146;28;20085;-78
2022/05/27 08:17:02;;;;;;;9.32;5.82;;;;;;;25.25;66.32;100770.50;4991138;28;20492;-78
2022/05/27 08:19:28;;;;;;;8.45;6.25;;;;;;;25.39;67.86;100770.25;4993233;28;20433;-78
2022/05/27 08:21:54;;;;;;;10.45;6.65;;;;;;;25.36;69.10;100754.44;4993259;28;20038;-80
2022/05/27 08:24:20;;;;;;;8.85;6.70;;;;;;;25.59;67.21;100750.47;4992786;28;20184;-81
2022/05/27 08:26:47;;;;;;;13.73;6.28;;;;;;;25.77;66.59;100755.38;4975578;28;20105;-78
2022/05/27 08:29:13;;;;;;;9.68;5.88;;;;;;;25.79;65.13;100763.28;4993170;28;20027;-83
2022/05/27 08:31:39;;;;;;;8.80;5.90;;;;;;;25.80;64.24;100757.09;4993152;28;20064;-81
2022/05/27 08:39:38;;;;;;;7.28;4.80;;;;;;;25.87;61.36;100756.06;4993352;28;20099;-87
2022/05/27 08:42:07;;;;;;;9.68;5.20;;;;;;;25.61;60.31;100671.97;4993141;28;20061;-84
2022/05/27 08:44:48;;;;;;;12.20;5.20;;;;;;;26.15;60.98;100736.91;4992913;28;20431;-80
2022/05/27 08:47:35;;;;;;;7.55;4.65;;;;;;;26.34;59.23;100739.13;4992733;28;20519;-83
2022/05/27 08:50:12;;;;;;;10.13;4.90;;;;;;;26.38;58.16;100735.50;4975563;28;20038;-84
2022/05/27 08:52:45;;;;;;;9.02;5.65;;;;;;;26.44;59.01;100741.53;4975464;28;20026;-83
2022/05/27 09:01:14;;;;;;;9.95;5.32;;;;;;;26.53;59.15;100718.34;4992971;28;20068;-82
2022/05/27 09:03:46;;;;;;;7.97;4.50;;;;;;;26.64;58.55;100724.25;4993124;28;20061;-83
2022/05/27 09:06:13;;;;;;;8.73;5.32;;;;;;;26.73;58.61;100702.81;4974661;28;20084;-79
2022/05/27 09:08:39;;;;;;;8.90;5.10;;;;;;;27.02;57.53;100721.53;4992757;28;20029;-82
2022/05/27 09:11:19;;;;;;;11.85;4.93;;;;;;;27.27;59.59;100722.56;4992895;28;20045;-83
2022/05/27 09:14:01;;;;;;;9.77;5.10;;;;;;;27.26;55.39;100694.31;4992555;28;20026;-82
2022/05/27 09:16:55;;;;;;;7.43;3.83;;;;;;;27.37;54.36;100706.41;4992446;28;20038;-82
2022/05/27 09:19:29;;;;;;;10.65;4.32;;;;;;;27.04;56.28;100641.09;4992819;28;20030;-82
2022/05/27 09:22:17;;;;;;;7.30;3.63;;;;;;;27.36;53.05;100696.72;4992322;28;20405;-82
2022/05/27 09:24:50;;;;;;;7.70;3.97;;;;;;;27.42;53.50;100683.31;4974572;28;20041;-82
2022/05/27 09:27:36;;;;;;;6.32;4.20;;;;;;;27.60;53.47;100700.44;4974910;28;20129;-83
2022/05/27 09:30:11;;;;;;;10.80;4.95;;;;;;;27.69;52.59;100692.19;4992110;28;20026;-82
2022/05/27 09:32:47;;;;;;;6.97;3.67;;;;;;;27.51;53.90;100701.56;4974667;28;20393;-80
2022/05/27 09:35:20;;;;;;;6.90;4.07;;;;;;;27.68;52.37;100694.91;4974638;28;20061;-81
2022/05/27 09:37:50;;;;;;;10.80;4.35;;;;;;;27.25;53.32;100622.78;4992222;28;20034;-81
2022/05/27 09:40:19;;;;;;;7.40;4.03;;;;;;;27.86;52.27;100689.00;4974490;28;20038;-82
2022/05/27 09:42:58;;;;;;;5.95;3.85;;;;;;;27.99;50.91;100702.75;4991822;28;20043;-82
2022/05/27 09:45:24;;;;;;;;;;;;;;;28.01;51.17;100697.41;4974983;28;20034;-82
2022/05/27 09:47:56;;;;;;;6.85;3.50;;;;;;;28.07;50.19;100682.16;4974187;28;19937;-81
2022/05/27 09:50:38;;;;;;;5.13;3.67;;;;;;;28.18;49.84;100679.16;4991887;28;20034;-82
2022/05/27 09:53:04;;;;;;;6.45;3.67;;;;;;;28.00;48.89;100677.09;4974654;28;20040;-82
2022/05/27 09:56:04;;;;;;;7.07;3.88;;;;;;;28.21;48.50;100681.75;4973579;28;20045;-82
2022/05/27 09:58:36;;;;;;;6.95;3.70;;;;;;;28.44;48.51;100677.44;4974037;28;20121;-82
2022/05/27 10:01:04;;;;;;;9.57;3.67;;;;;;;28.39;48.15;100671.41;4991583;28;20560;-81
2022/05/27 10:03:39;;;;;;;6.55;3.92;;;;;;;28.60;48.92;100674.22;4974094;28;20504;-82
2022/05/27 10:06:15;;;;;;;8.02;3.60;;;;;;;28.41;46.93;100670.44;4974079;28;20034;-81
2022/05/27 10:09:01;;;;;;;5.80;3.67;;;;;;;28.57;47.30;100665.47;4973720;28;20030;-81
2022/05/27 10:11:30;;;;;;;5.43;3.45;;;;;;;28.81;47.68;100656.69;4973970;28;20117;-81
2022/05/27 10:14:11;;;;;;;;;;;;;;;28.78;46.34;100655.00;4991917;28;20057;-82
2022/05/27 10:16:39;;;;;;;6.93;3.80;;;;;;;29.01;48.01;100645.31;4973791;28;19913;-82
2022/05/27 10:19:13;;;;;;;8.85;3.70;;;;;;;29.32;46.31;100645.09;4973539;28;20030;-82
2022/05/27 10:21:51;;;;;;;6.25;3.40;;;;;;;29.03;45.12;100640.81;4973951;28;20030;-82
2022/05/27 10:24:28;;;;;;;5.35;3.63;;;;;;;29.17;45.75;100640.31;4991403;28;20598;-80
2022/05/27 10:27:20;;;;;;;8.45;3.72;;;;;;;29.35;43.87;100630.78;4973930;28;20026;-81
2022/05/27 10:29:59;;;;;;;7.22;3.65;;;;;;;29.54;44.85;100630.94;4912109;29;20504;-82
2022/05/27 10:32:37;;;;;;;6.87;3.87;;;;;;;29.62;44.96;100631.50;4912278;29;20032;-84
2022/05/27 10:35:27;;;;;;;6.20;3.30;;;;;;;29.95;44.66;100627.56;4912494;29;20239;-83
2022/05/27 10:38:21;;;;;;;6.90;3.47;;;;;;;30.01;43.82;100629.97;4911941;29;20140;-81
2022/05/27 10:40:51;;;;;;;7.22;3.40;;;;;;;30.22;41.67;100619.31;4911758;29;20465;-83
2022/05/27 10:43:19;;;;;;;4.90;2.67;;;;;;;30.16;39.21;100613.31;4912199;29;20072;-78
2022/05/27 10:45:47;;;;;;;4.97;2.70;;;;;;;29.93;39.54;100545.06;4911945;29;20428;-85
2022/05/27 10:48:31;;;;;;;6.80;2.92;;;;;;;30.24;39.63;100599.66;4895901;29;20067;-82
2022/05/27 10:51:18;;;;;;;6.55;2.97;;;;;;;30.23;40.88;100605.06;4911097;29;20040;-82
2022/05/27 10:54:12;;;;;;;6.30;2.75;;;;;;;30.32;38.66;100599.38;4911443;29;20112;-80
2022/05/27 11:03:18;;;;;;;7.78;2.80;;;;;;;30.30;39.13;100590.56;4911755;29;20537;-81
2022/05/27 11:06:08;;;;;;;4.32;2.63;;;;;;;30.25;38.61;100595.22;4920856;28;20051;-81
2022/05/27 11:08:47;;;;;;;6.55;2.22;;;;;;;30.24;38.02;100554.41;4957885;28;20416;-82
2022/05/27 11:11:29;;;;;;;8.80;3.33;;;;;;;30.59;38.04;100564.44;4974990;28;20035;-82
2022/05/27 11:17:47;;;;;;;7.68;2.40;;;;;;;30.58;36.53;100582.25;4975048;28;20090;-81
2022/05/27 11:20:42;;;;;;;5.55;2.50;;;;;;;30.93;36.61;100578.88;4896606;29;20056;-81
2022/05/27 11:23:26;;;;;;;6.13;2.45;;;;;;;30.80;36.00;100578.59;4896488;29;20092;-81
2022/05/27 11:26:20;;;;;;;5.63;2.42;;;;;;;30.88;36.46;100565.78;4895986;29;20044;-78
2022/05/27 11:29:11;;;;;;;5.47;2.13;;;;;;;30.88;36.00;100567.56;4861956;29;20109;-82
2022/05/27 11:32:15;;;;;;;6.50;2.20;;;;;;;31.05;36.57;100562.31;4858984;29;20046;-80
2022/05/27 11:35:02;;;;;;;4.90;2.20;;;;;;;30.58;37.15;100552.06;4843428;29;20042;-82
2022/05/27 11:37:49;;;;;;;2.90;1.83;;;;;;;30.46;34.78;100532.16;4821841;29;20050;-82
2022/05/27 11:40:23;;;;;;;3.65;1.88;;;;;;;30.48;34.09;100563.16;4806477;29;20055;-82
2022/05/27 11:43:07;;;;;;;6.90;2.20;;;;;;;30.79;36.25;100561.75;4821923;29;20050;-82
2022/05/27 11:45:34;;;;;;;3.80;2.05;;;;;;;30.92;36.10;100562.03;4821591;29;20109;-82
2022/05/27 11:48:02;;;;;;;4.07;2.30;;;;;;;31.07;36.58;100556.97;4821745;29;20548;-87
2022/05/27 11:50:52;;;;;;;5.05;2.17;;;;;;;30.87;34.98;100555.19;4811828;29;20513;-82
2022/05/27 11:53:42;;;;;;;4.20;1.73;;;;;;;30.86;34.32;100549.00;4840185;29;20125;-83
2022/05/27 11:56:13;;;;;;;3.05;1.77;;;;;;;30.87;35.32;100549.84;4843027;29;20045;-82
2022/05/27 11:59:08;;;;;;;3.28;1.90;;;;;;;30.65;35.30;100538.38;4858425;29;20124;-82
2022/05/27 12:01:37;;;;;;;2.55;1.77;;;;;;;30.81;35.26;100545.69;4858333;29;20045;-81
2022/05/27 12:04:42;;;;;;;3.30;1.90;;;;;;;31.16;34.80;100545.00;4842899;29;20042;-81
2022/05/27 12:07:10;;;;;;;4.30;2.10;;;;;;;31.41;33.71;100537.50;4818624;29;20454;-82
2022/05/27 12:09:44;;;;;;;4.82;2.28;;;;;;;31.38;33.56;100492.31;4872480;29;20089;-81
2022/05/27 12:12:15;;;;;;;6.13;2.00;;;;;;;31.72;33.80;100530.66;4876711;29;20423;-82
2022/05/27 12:15:06;;;;;;;4.00;2.30;;;;;;;31.40;33.73;100527.75;4876874;29;20033;-83
2022/05/27 12:17:44;;;;;;;3.17;1.83;;;;;;;31.15;33.84;100496.09;4839072;29;20099;-82